createdAt,value
2023-03-16T00:01:55.623Z,83.14
2023-03-16T00:07:19.823Z,82.92
2023-03-16T00:12:45.254Z,83.13
2023-03-16T00:18:10.165Z,83.45
2023-03-16T00:23:36.390Z,83.35
2023-03-16T00:29:02.166Z,83.78
2023-03-16T00:34:30.374Z,83.61
2023-03-16T00:39:58.447Z,83.59
2023-03-16T00:45:23.878Z,83.73
2023-03-16T00:50:48.501Z,84.10
2023-03-16T00:56:14.028Z,84.20
2023-03-16T01:01:39.288Z,84.24
2023-03-16T01:07:04.919Z,84.33
2023-03-16T01:12:29.218Z,84.50
2023-03-16T01:17:53.497Z,84.77
2023-03-16T01:23:19.448Z,85.14
2023-03-16T01:28:45.425Z,85.12
2023-03-16T01:34:09.354Z,85.22
2023-03-16T01:39:33.755Z,85.59
2023-03-16T01:45:05.990Z,85.29
2023-03-16T01:50:36.074Z,85.52
2023-03-16T01:56:03.640Z,85.42
2023-03-16T02:01:29.484Z,85.37
2023-03-16T02:06:57.759Z,85.34
2023-03-16T02:12:22.183Z,85.36
2023-03-16T02:17:51.051Z,85.47
2023-03-16T02:23:20.014Z,85.84
2023-03-16T02:29:30.368Z,85.81
2023-03-16T02:34:57.432Z,86.02
2023-03-16T02:40:30.823Z,85.70
2023-03-16T02:46:04.208Z,85.83
2023-03-16T02:51:28.647Z,86.04
2023-03-16T02:56:52.829Z,86.07
2023-03-16T03:02:17.905Z,86.52
2023-03-16T03:07:42.830Z,86.42
2023-03-16T03:13:10.167Z,86.13
2023-03-16T03:18:35.458Z,86.36
2023-03-16T03:24:00.046Z,86.35
2023-03-16T03:29:24.243Z,86.29
2023-03-16T03:34:48.695Z,86.52
2023-03-16T03:40:17.573Z,86.41
2023-03-16T03:45:44.411Z,86.51
2023-03-16T03:51:08.818Z,86.26
2023-03-16T03:56:46.083Z,86.23
2023-03-16T04:02:14.596Z,86.02
2023-03-16T04:07:43.619Z,86.10
2023-03-16T04:13:10.302Z,86.13
2023-03-16T04:18:38.888Z,86.01
2023-03-16T04:24:05.609Z,85.89
2023-03-16T04:29:32.568Z,86.15
2023-03-16T04:34:57.478Z,86.12
2023-03-16T04:40:30.851Z,86.09
2023-03-16T04:46:16.765Z,86.07
2023-03-16T04:51:42.930Z,86.36
2023-03-16T04:57:10.595Z,86.43
2023-03-16T05:02:39.893Z,86.57
2023-03-16T05:08:06.385Z,86.35
2023-03-16T05:13:31.637Z,86.21
2023-03-16T05:19:01.757Z,86.30
2023-03-16T05:24:27.357Z,86.28
2023-03-16T05:29:51.372Z,86.07
2023-03-16T05:35:18.631Z,85.97
2023-03-16T05:40:44.135Z,85.91
2023-03-16T05:46:20.649Z,85.72
2023-03-16T05:51:46.936Z,85.65
2023-03-16T05:57:11.282Z,85.29
2023-03-16T06:02:36.108Z,85.09
2023-03-16T06:08:00.699Z,84.79
2023-03-16T06:13:25.228Z,84.55
2023-03-16T06:18:50.685Z,84.25
2023-03-16T06:24:15.993Z,83.94
2023-03-16T06:29:40.241Z,83.48
2023-03-16T06:35:05.734Z,83.21
2023-03-16T06:40:30.700Z,83.23
2023-03-16T06:45:55.322Z,82.72
2023-03-16T06:51:20.476Z,82.39
2023-03-16T06:56:46.505Z,82.63
2023-03-16T07:02:14.779Z,82.03
2023-03-16T07:07:42.934Z,81.73
2023-03-16T07:13:07.776Z,81.53
2023-03-16T07:18:32.190Z,81.39
2023-03-16T07:23:57.026Z,80.97
2023-03-16T07:29:24.960Z,80.67
2023-03-16T07:34:50.053Z,80.38
2023-03-16T07:40:16.004Z,80.07
2023-03-16T07:45:40.699Z,79.47
2023-03-16T07:51:06.360Z,79.16
2023-03-16T07:56:46.008Z,78.87
2023-03-16T08:02:21.998Z,78.20
2023-03-16T08:07:47.219Z,77.79
2023-03-16T08:13:16.298Z,77.09
2023-03-16T08:18:42.743Z,77.11
2023-03-16T08:24:07.926Z,76.23
2023-03-16T08:29:34.947Z,76.20
2023-03-16T08:35:01.591Z,75.68
2023-03-16T08:40:30.101Z,75.00
2023-03-16T08:45:56.238Z,74.47
2023-03-16T08:51:23.532Z,74.14
2023-03-16T08:56:48.327Z,73.61
2023-03-16T09:02:15.241Z,72.97
2023-03-16T09:07:41.355Z,72.68
2023-03-16T09:13:05.978Z,70.76
2023-03-16T09:18:31.600Z,69.96
2023-03-16T09:23:56.542Z,69.20
2023-03-16T09:29:22.138Z,67.74
2023-03-16T09:34:47.523Z,65.68
2023-03-16T09:40:23.338Z,65.17
2023-03-16T09:46:10.679Z,63.34
2023-03-16T09:52:00.814Z,62.91
2023-03-16T09:57:35.867Z,61.34
2023-03-16T10:03:15.062Z,58.97
2023-03-16T10:08:50.860Z,58.91
2023-03-16T10:14:34.203Z,59.04
2023-03-16T10:20:05.001Z,58.24
2023-03-16T10:25:41.990Z,57.81
2023-03-16T10:31:06.982Z,57.66
2023-03-16T10:36:34.979Z,57.15
2023-03-16T10:42:00.823Z,56.96
2023-03-16T10:47:31.860Z,56.66
2023-03-16T10:52:58.235Z,55.90
2023-03-16T10:58:27.510Z,55.14
2023-03-16T11:03:55.783Z,52.56
2023-03-16T11:09:25.230Z,51.40
2023-03-16T11:14:50.439Z,50.87
2023-03-16T11:20:23.806Z,51.90
2023-03-16T11:25:53.814Z,51.34
2023-03-16T11:31:33.144Z,50.14
2023-03-16T11:37:13.380Z,50.59
2023-03-16T11:43:06.251Z,49.56
2023-03-16T11:49:02.590Z,49.83
2023-03-16T11:54:33.350Z,48.65
2023-03-16T12:00:27.402Z,48.70
2023-03-16T12:06:02.116Z,48.01
2023-03-16T12:11:40.877Z,48.34
2023-03-16T12:17:16.568Z,48.03
2023-03-16T12:23:06.614Z,47.51
2023-03-16T12:28:33.832Z,45.76
2023-03-16T12:34:07.075Z,43.19
2023-03-16T12:39:45.979Z,43.77
2023-03-16T12:45:52.297Z,45.53
2023-03-16T12:51:17.539Z,44.02
2023-03-16T12:56:47.580Z,42.46
2023-03-16T13:02:19.747Z,43.36
2023-03-16T13:08:04.089Z,42.44
2023-03-16T13:13:33.031Z,46.48
2023-03-16T13:18:58.284Z,45.78
2023-03-16T13:24:29.142Z,42.69
2023-03-16T13:29:56.720Z,39.63
2023-03-16T13:35:25.300Z,41.76
2023-03-16T13:40:55.610Z,41.73
2023-03-16T13:46:22.594Z,42.72
2023-03-16T13:51:48.753Z,41.64
2023-03-16T13:57:13.897Z,44.84
2023-03-16T14:02:44.291Z,43.73
2023-03-16T14:08:19.845Z,42.98
2023-03-16T14:13:53.885Z,41.20
2023-03-16T14:19:23.110Z,41.68
2023-03-16T14:24:54.025Z,43.37
2023-03-16T14:30:24.552Z,40.64
2023-03-16T14:35:55.088Z,42.39
2023-03-16T14:41:26.549Z,40.23
2023-03-16T14:46:53.379Z,41.82
2023-03-16T14:52:33.336Z,42.73
2023-03-16T14:57:57.242Z,39.12
2023-03-16T15:03:30.529Z,39.16
2023-03-16T15:08:55.901Z,36.89
2023-03-16T15:14:40.992Z,37.28
2023-03-16T15:20:05.748Z,37.26
2023-03-16T15:25:38.700Z,37.13
2023-03-16T15:31:04.166Z,36.50
2023-03-16T15:36:28.382Z,35.81
2023-03-16T15:41:53.172Z,36.33
2023-03-16T15:47:17.677Z,37.04
2023-03-16T15:52:43.916Z,37.86
2023-03-16T15:58:20.702Z,37.85
2023-03-16T16:03:45.050Z,38.51
2023-03-16T16:09:09.401Z,39.67
2023-03-16T16:14:35.503Z,40.10
2023-03-16T16:20:01.105Z,39.59
2023-03-16T16:25:26.051Z,40.97
2023-03-16T16:30:50.869Z,41.47
2023-03-16T16:36:21.169Z,41.63
2023-03-16T16:41:46.458Z,41.85
2023-03-16T16:47:23.024Z,42.44
2023-03-16T16:52:49.758Z,43.02
2023-03-16T16:58:23.894Z,43.43
2023-03-16T17:03:48.967Z,43.77
2023-03-16T17:09:14.633Z,44.55
2023-03-16T17:14:39.309Z,45.48
2023-03-16T17:20:06.662Z,46.07
2023-03-16T17:25:32.738Z,46.20
2023-03-16T17:30:57.423Z,46.61
2023-03-16T17:36:22.785Z,46.94
2023-03-16T17:41:47.960Z,47.54
2023-03-16T17:47:18.410Z,48.11
2023-03-16T17:52:43.653Z,48.86
2023-03-16T17:58:35.378Z,49.29
2023-03-16T18:03:59.436Z,49.45
2023-03-16T18:09:25.159Z,49.58
2023-03-16T18:14:50.090Z,50.11
2023-03-16T18:20:34.049Z,50.36
2023-03-16T18:26:07.417Z,50.71
2023-03-16T18:31:36.205Z,50.22
2023-03-16T18:37:06.450Z,49.79
2023-03-16T18:42:31.269Z,50.13
2023-03-16T18:47:56.748Z,51.11
2023-03-16T18:53:25.374Z,52.13
2023-03-16T18:58:51.859Z,52.44
2023-03-16T19:04:27.633Z,53.15
2023-03-16T19:09:52.752Z,53.51
2023-03-16T19:15:19.005Z,54.00
2023-03-16T19:20:48.958Z,54.15
2023-03-16T19:26:15.680Z,54.28
2023-03-16T19:31:40.332Z,54.06
2023-03-16T19:37:05.567Z,54.16
2023-03-16T19:42:36.678Z,54.70
2023-03-16T19:48:02.342Z,54.67
2023-03-16T19:53:27.674Z,55.22
2023-03-16T19:58:53.945Z,55.39
2023-03-16T20:04:25.237Z,55.61
2023-03-16T20:09:51.785Z,55.36
2023-03-16T20:15:18.338Z,55.88
2023-03-16T20:20:43.721Z,56.25
2023-03-16T20:26:17.031Z,56.81
2023-03-16T20:31:42.613Z,56.37
2023-03-16T20:37:21.736Z,56.35
2023-03-16T20:42:47.816Z,55.89
2023-03-16T20:48:16.366Z,56.48
2023-03-16T20:53:40.933Z,56.69
2023-03-16T20:59:05.636Z,57.51
2023-03-16T21:04:30.334Z,57.87
2023-03-16T21:09:55.034Z,58.22
2023-03-16T21:15:26.758Z,58.70
2023-03-16T21:20:51.037Z,59.01
2023-03-16T21:26:25.284Z,58.61
2023-03-16T21:31:50.297Z,59.35
2023-03-16T21:37:15.877Z,59.58
2023-03-16T21:42:40.892Z,59.59
2023-03-16T21:48:06.811Z,59.58
2023-03-16T21:53:33.792Z,59.89
2023-03-16T21:58:58.625Z,60.52
2023-03-16T22:04:23.320Z,60.42
2023-03-16T22:09:48.164Z,60.56
2023-03-16T22:15:15.059Z,60.86
2023-03-16T22:20:39.836Z,61.19
2023-03-16T22:26:06.362Z,61.64
2023-03-16T22:31:39.186Z,61.99
2023-03-16T22:37:04.501Z,62.33
2023-03-16T22:42:38.259Z,62.64
2023-03-16T22:48:16.838Z,62.75
2023-03-16T22:53:45.713Z,63.12
2023-03-16T22:59:18.228Z,63.43
2023-03-16T23:04:42.979Z,63.48
2023-03-16T23:10:08.480Z,63.80
2023-03-16T23:15:38.743Z,63.80
2023-03-16T23:21:04.569Z,63.80
2023-03-16T23:26:29.445Z,64.02
2023-03-16T23:31:54.192Z,63.99
2023-03-16T23:37:18.627Z,64.16
2023-03-16T23:42:44.010Z,64.17
2023-03-16T23:48:17.848Z,64.57
2023-03-16T23:53:42.925Z,64.40
2023-03-16T23:59:07.622Z,64.94
